createdAt,value
2022-09-20T00:05:05.565Z,58.50
2022-09-20T00:07:56.241Z,35.25
2022-09-20T00:11:13.241Z,54.55
2022-09-20T00:14:04.532Z,41.63
2022-09-20T00:19:53.843Z,36.42
2022-09-20T00:22:43.627Z,53.03
2022-09-20T00:25:34.246Z,33.05
2022-09-20T00:29:17.607Z,48.25
2022-09-20T00:32:10.141Z,23.63
2022-09-20T00:35:12.442Z,58.97
2022-09-20T00:38:07.218Z,149.38
2022-09-20T00:41:30.132Z,147.13
2022-09-20T00:45:19.614Z,186.75
2022-09-20T00:48:13.868Z,168.73
2022-09-20T00:51:33.932Z,69.18
2022-09-20T00:57:20.796Z,250.75
2022-09-20T01:01:20.940Z,323.73
2022-09-20T01:04:05.056Z,312.33
2022-09-20T01:07:00.716Z,316.08
2022-09-20T01:12:56.362Z,192.95
2022-09-20T01:16:25.867Z,71.63
2022-09-20T01:23:28.717Z,27.35
2022-09-20T01:26:44.745Z,32.70
2022-09-20T01:29:42.674Z,47.28
2022-09-20T01:32:35.831Z,33.30
2022-09-20T01:35:17.042Z,24.23
2022-09-20T01:38:45.354Z,18.67
2022-09-20T01:42:10.401Z,15.35
2022-09-20T01:45:04.240Z,32.33
2022-09-20T01:48:28.837Z,15.77
2022-09-20T01:51:22.222Z,21.27
2022-09-20T01:54:32.461Z,17.30
2022-09-20T01:57:36.710Z,10.20
2022-09-20T02:00:38.857Z,6.57
2022-09-20T02:03:59.699Z,9.50
2022-09-20T02:07:43.563Z,6.70
2022-09-20T02:10:31.026Z,9.68
2022-09-20T02:13:33.882Z,7.22
2022-09-20T02:16:52.361Z,10.93
2022-09-20T02:20:13.372Z,10.82
2022-09-20T02:23:30.013Z,8.32
2022-09-20T02:26:55.198Z,6.43
2022-09-20T02:30:07.959Z,7.45
2022-09-20T02:36:53.289Z,8.95
2022-09-20T02:42:53.968Z,7.38
2022-09-20T02:46:13.451Z,8.38
2022-09-20T02:49:38.892Z,9.18
2022-09-20T02:52:44.937Z,7.22
2022-09-20T02:55:56.925Z,5.72
2022-09-20T02:58:44.034Z,5.68
2022-09-20T03:01:32.026Z,5.80
2022-09-20T03:04:33.629Z,9.27
2022-09-20T03:07:43.800Z,6.25
2022-09-20T03:11:03.745Z,4.15
2022-09-20T03:14:19.275Z,6.68
2022-09-20T03:18:16.367Z,8.75
2022-09-20T03:24:01.818Z,6.88
2022-09-20T03:27:23.191Z,6.10
2022-09-20T03:30:23.740Z,4.43
2022-09-20T03:33:22.923Z,5.22
2022-09-20T03:36:35.691Z,5.13
2022-09-20T03:39:32.410Z,7.85
2022-09-20T03:42:46.740Z,7.60
2022-09-20T03:46:00.107Z,4.03
2022-09-20T03:49:13.253Z,3.75
2022-09-20T03:52:14.947Z,5.20
2022-09-20T03:55:01.724Z,5.50
2022-09-20T03:58:02.512Z,5.32
2022-09-20T04:01:11.218Z,4.95
2022-09-20T04:04:30.203Z,4.93
2022-09-20T04:07:35.966Z,6.55
2022-09-20T04:10:41.138Z,5.18
2022-09-20T04:13:37.341Z,4.45
2022-09-20T04:16:27.517Z,5.43
2022-09-20T04:19:15.755Z,7.68
2022-09-20T04:22:02.111Z,5.97
2022-09-20T04:25:13.540Z,6.10
2022-09-20T04:31:36.015Z,4.50
2022-09-20T04:34:58.682Z,6.07
2022-09-20T04:38:10.573Z,7.88
2022-09-20T04:41:16.351Z,6.38
2022-09-20T04:44:42.158Z,11.45
2022-09-20T04:47:59.199Z,6.95
2022-09-20T04:50:42.024Z,5.45
2022-09-20T04:56:53.120Z,5.07
2022-09-20T04:59:59.049Z,6.07
2022-09-20T05:03:06.194Z,6.57
2022-09-20T05:06:18.294Z,6.55
2022-09-20T05:09:43.298Z,5.00
2022-09-20T05:12:57.950Z,5.95
2022-09-20T05:16:21.793Z,5.85
2022-09-20T05:19:07.780Z,10.55
2022-09-20T05:21:53.725Z,7.72
2022-09-20T05:25:12.766Z,52.22
2022-09-20T05:28:25.748Z,25.70
2022-09-20T05:31:56.788Z,12.98
2022-09-20T05:34:45.389Z,6.90
2022-09-20T05:38:09.946Z,7.50
2022-09-20T05:41:07.922Z,10.00
2022-09-20T05:44:24.120Z,6.60
2022-09-20T05:47:31.088Z,6.38
2022-09-20T05:51:03.708Z,8.57
2022-09-20T05:54:06.954Z,9.38
2022-09-20T05:56:57.109Z,7.22
2022-09-20T05:59:56.617Z,6.40
2022-09-20T06:02:38.461Z,7.18
2022-09-20T06:05:18.673Z,5.78
2022-09-20T06:08:12.903Z,5.07
2022-09-20T06:11:32.546Z,7.65
2022-09-20T06:14:45.690Z,6.53
2022-09-20T06:18:01.840Z,6.82
2022-09-20T06:21:09.540Z,6.10
2022-09-20T06:23:46.322Z,8.48
2022-09-20T06:26:27.677Z,5.18
2022-09-20T06:29:20.784Z,4.65
2022-09-20T06:32:06.996Z,6.95
2022-09-20T06:34:42.347Z,5.30
2022-09-20T06:37:43.404Z,5.20
2022-09-20T06:41:09.951Z,3.83
2022-09-20T06:44:15.344Z,4.25
2022-09-20T06:47:25.389Z,2.25
2022-09-20T06:50:20.907Z,3.97
2022-09-20T06:53:18.190Z,5.43
2022-09-20T06:56:01.483Z,2.72
2022-09-20T06:58:57.265Z,7.30
2022-09-20T07:01:54.223Z,2.47
2022-09-20T07:04:42.708Z,3.75
2022-09-20T07:07:38.253Z,3.25
2022-09-20T07:10:36.516Z,1.63
2022-09-20T07:13:15.720Z,1.92
2022-09-20T07:16:12.289Z,1.83
2022-09-20T07:19:20.643Z,4.32
2022-09-20T07:22:01.757Z,2.13
2022-09-20T07:24:48.712Z,3.53
2022-09-20T07:27:26.389Z,5.28
2022-09-20T07:30:17.773Z,4.43
2022-09-20T07:33:12.587Z,3.00
2022-09-20T07:36:11.892Z,4.38
2022-09-20T07:39:06.155Z,3.67
2022-09-20T07:41:37.458Z,4.13
2022-09-20T07:44:33.798Z,2.35
2022-09-20T07:47:30.429Z,1.80
2022-09-20T07:50:07.467Z,3.50
2022-09-20T07:52:54.752Z,4.28
2022-09-20T07:55:44.956Z,11.18
2022-09-20T07:58:52.575Z,2.35
2022-09-20T08:01:48.389Z,5.22
2022-09-20T08:04:30.131Z,2.55
2022-09-20T08:07:20.018Z,2.92
2022-09-20T08:10:00.687Z,2.28
2022-09-20T08:16:34.608Z,2.08
2022-09-20T08:23:29.611Z,1.67
2022-09-20T08:29:32.906Z,2.75
2022-09-20T08:32:51.329Z,2.92
2022-09-20T08:35:30.143Z,1.75
2022-09-20T08:40:50.739Z,3.03
2022-09-20T08:43:47.232Z,9.98
2022-09-20T08:46:41.172Z,7.10
2022-09-20T08:52:43.576Z,1.80
2022-09-20T08:55:37.733Z,1.30
2022-09-20T08:58:19.700Z,1.30
2022-09-20T09:01:38.566Z,3.45
2022-09-20T09:07:48.119Z,0.68
2022-09-20T09:10:50.762Z,3.05
2022-09-20T09:14:46.728Z,0.70
2022-09-20T09:18:06.150Z,0.88
2022-09-20T09:24:10.313Z,3.17
2022-09-20T09:26:58.381Z,1.52
2022-09-20T09:29:34.869Z,1.85
2022-09-20T09:32:56.775Z,1.13
2022-09-20T09:35:52.034Z,1.70
2022-09-20T09:38:38.903Z,1.33
2022-09-20T09:41:31.509Z,1.40
2022-09-20T09:44:10.748Z,1.58
2022-09-20T09:46:42.518Z,3.70
2022-09-20T09:49:24.379Z,1.42
2022-09-20T09:52:26.632Z,3.72
2022-09-20T09:55:30.010Z,5.30
2022-09-20T09:58:30.489Z,2.35
2022-09-20T10:08:15.888Z,5.53
2022-09-20T10:12:09.551Z,2.47
2022-09-20T10:15:31.480Z,1.55
2022-09-20T10:18:50.027Z,1.35
2022-09-20T10:22:22.297Z,1.42
2022-09-20T10:25:54.013Z,4.10
2022-09-20T10:29:34.375Z,3.53
2022-09-20T10:36:40.884Z,2.85
2022-09-20T10:39:27.228Z,1.98
2022-09-20T10:42:39.454Z,2.85
2022-09-20T10:45:56.000Z,2.58
2022-09-20T10:48:30.805Z,1.35
2022-09-20T10:51:18.717Z,2.63
2022-09-20T10:54:24.216Z,1.83
2022-09-20T10:57:10.869Z,2.30
2022-09-20T11:00:08.394Z,0.80
2022-09-20T11:02:43.534Z,2.70
2022-09-20T11:05:55.781Z,1.02
2022-09-20T11:08:32.745Z,1.20
2022-09-20T11:11:06.303Z,1.50
2022-09-20T11:13:46.280Z,1.63
2022-09-20T11:16:33.254Z,1.30
2022-09-20T11:19:19.424Z,2.20
2022-09-20T11:22:24.881Z,1.00
2022-09-20T11:25:29.709Z,2.58
2022-09-20T11:28:33.292Z,1.48
2022-09-20T11:31:24.030Z,3.92
2022-09-20T11:34:12.786Z,1.40
2022-09-20T11:37:03.611Z,0.90
2022-09-20T11:39:46.686Z,1.67
2022-09-20T11:42:20.474Z,1.20
2022-09-20T11:44:51.486Z,1.02
2022-09-20T11:48:01.233Z,2.60
2022-09-20T11:50:57.274Z,3.20
2022-09-20T11:53:51.916Z,2.53
2022-09-20T11:56:34.955Z,1.83
2022-09-20T11:59:07.736Z,1.40
2022-09-20T12:01:44.501Z,1.13
2022-09-20T12:04:33.847Z,2.40
2022-09-20T12:07:09.639Z,1.27
2022-09-20T12:09:45.859Z,1.88
2022-09-20T12:12:33.047Z,1.92
2022-09-20T12:15:08.233Z,3.78
2022-09-20T12:17:48.211Z,1.77
2022-09-20T12:20:42.769Z,3.13
2022-09-20T12:23:42.693Z,2.40
2022-09-20T12:26:15.997Z,2.83
2022-09-20T12:28:53.449Z,2.40
2022-09-20T12:31:41.322Z,11.15
2022-09-20T12:34:13.851Z,16.20
2022-09-20T12:37:00.644Z,12.05
2022-09-20T12:39:40.927Z,7.75
2022-09-20T12:42:18.030Z,14.75
2022-09-20T12:44:58.162Z,3.60
2022-09-20T12:47:36.908Z,3.42
2022-09-20T12:50:33.694Z,1.92
2022-09-20T12:53:13.052Z,3.03
2022-09-20T12:56:02.947Z,5.53
2022-09-20T12:58:35.169Z,3.85
2022-09-20T13:01:08.482Z,6.03
2022-09-20T13:03:50.187Z,7.45
2022-09-20T13:06:19.465Z,5.07
2022-09-20T13:08:48.523Z,5.13
2022-09-20T13:11:21.498Z,7.18
2022-09-20T13:13:56.507Z,6.20
2022-09-20T13:16:39.752Z,7.40
2022-09-20T13:19:34.315Z,13.05
2022-09-20T13:22:23.615Z,9.45
2022-09-20T13:25:01.112Z,15.50
2022-09-20T13:28:05.523Z,10.70
2022-09-20T13:30:34.482Z,14.73
2022-09-20T13:33:25.832Z,37.78
2022-09-20T13:35:58.490Z,37.00
2022-09-20T13:38:32.146Z,18.63
2022-09-20T13:41:10.778Z,72.15
2022-09-20T13:43:42.047Z,74.25
2022-09-20T13:46:23.013Z,21.98
2022-09-20T13:49:13.370Z,11.93
2022-09-20T13:51:47.472Z,6.72
2022-09-20T13:54:31.866Z,8.27
2022-09-20T13:57:13.614Z,7.60
2022-09-20T13:59:46.994Z,20.73
2022-09-20T14:02:27.555Z,15.65
2022-09-20T14:05:06.303Z,17.27
2022-09-20T14:07:37.183Z,21.58
2022-09-20T14:10:28.005Z,13.35
2022-09-20T14:13:02.828Z,19.23
2022-09-20T14:15:42.558Z,35.83
2022-09-20T14:18:17.261Z,27.57
2022-09-20T14:20:46.403Z,15.77
2022-09-20T14:23:31.208Z,4.75
2022-09-20T14:26:23.455Z,4.80
2022-09-20T14:28:56.219Z,27.52
2022-09-20T14:31:35.677Z,18.67
2022-09-20T14:34:12.441Z,12.20
2022-09-20T14:36:47.465Z,8.48
2022-09-20T14:39:21.851Z,5.43
2022-09-20T14:41:55.062Z,3.78
2022-09-20T14:44:40.076Z,3.80
2022-09-20T14:47:16.049Z,2.40
2022-09-20T14:49:50.276Z,2.20
2022-09-20T14:52:30.996Z,4.90
2022-09-20T14:55:16.722Z,4.70
2022-09-20T14:57:52.921Z,2.53
2022-09-20T15:00:21.660Z,3.92
2022-09-20T15:02:50.901Z,19.65
2022-09-20T15:05:26.343Z,38.85
2022-09-20T15:07:59.753Z,5.87
2022-09-20T15:10:29.653Z,5.93
2022-09-20T15:12:58.530Z,22.37
2022-09-20T15:15:33.408Z,11.73
2022-09-20T15:18:05.759Z,4.78
2022-09-20T15:20:37.819Z,3.63
2022-09-20T15:23:10.037Z,4.80
2022-09-20T15:25:38.131Z,3.65
2022-09-20T15:28:09.403Z,4.13
2022-09-20T15:30:41.194Z,8.00
2022-09-20T15:33:11.761Z,19.02
2022-09-20T15:35:44.686Z,8.25
2022-09-20T15:38:15.378Z,8.48
2022-09-20T15:40:48.546Z,12.98
2022-09-20T15:43:24.343Z,14.77
2022-09-20T15:46:01.204Z,19.77
2022-09-20T15:48:32.936Z,5.10
2022-09-20T15:51:07.177Z,7.05
2022-09-20T15:53:49.885Z,7.00
2022-09-20T15:56:29.723Z,8.05
2022-09-20T15:59:01.252Z,4.03
2022-09-20T16:01:30.525Z,8.15
2022-09-20T16:03:59.849Z,6.30
2022-09-20T16:06:32.929Z,7.65
2022-09-20T16:09:01.362Z,3.83
2022-09-20T16:11:32.382Z,9.32
2022-09-20T16:14:12.816Z,7.18
2022-09-20T16:16:44.611Z,6.85
2022-09-20T16:19:18.801Z,9.13
2022-09-20T16:21:58.146Z,8.75
2022-09-20T16:24:36.248Z,7.60
2022-09-20T16:27:08.136Z,9.18
2022-09-20T16:29:45.866Z,5.70
2022-09-20T16:32:14.976Z,7.28
2022-09-20T16:34:48.709Z,14.07
2022-09-20T16:37:20.363Z,29.23
2022-09-20T16:39:51.930Z,23.17
2022-09-20T16:42:23.785Z,23.58
2022-09-20T16:44:57.444Z,54.42
2022-09-20T16:47:26.615Z,26.02
2022-09-20T16:49:56.807Z,25.63
2022-09-20T16:52:26.652Z,17.17
2022-09-20T16:54:57.815Z,13.68
2022-09-20T16:57:26.310Z,11.40
2022-09-20T16:59:56.124Z,10.73
2022-09-20T17:02:24.884Z,13.25
2022-09-20T17:04:53.369Z,11.98
2022-09-20T17:07:25.771Z,15.60
2022-09-20T17:10:01.442Z,17.90
2022-09-20T17:12:33.546Z,12.60
2022-09-20T17:15:06.512Z,16.92
2022-09-20T17:17:36.654Z,21.20
2022-09-20T17:20:07.355Z,31.58
2022-09-20T17:22:38.815Z,41.35
2022-09-20T17:25:10.082Z,84.40
2022-09-20T17:27:39.500Z,69.88
2022-09-20T17:30:10.453Z,57.10
2022-09-20T17:32:38.693Z,56.40
2022-09-20T17:35:09.913Z,53.50
2022-09-20T17:37:43.761Z,54.45
2022-09-20T17:40:17.623Z,58.25
2022-09-20T17:42:48.340Z,56.50
2022-09-20T17:45:19.700Z,59.08
2022-09-20T17:47:52.651Z,56.75
2022-09-20T17:50:23.226Z,53.40
2022-09-20T17:52:54.005Z,56.42
2022-09-20T17:55:22.494Z,52.03
2022-09-20T17:57:53.618Z,51.08
2022-09-20T18:00:22.188Z,50.28
2022-09-20T18:02:59.583Z,46.15
2022-09-20T18:05:35.042Z,47.10
2022-09-20T18:10:33.419Z,41.10
2022-09-20T18:13:08.061Z,42.08
2022-09-20T18:15:36.943Z,42.55
2022-09-20T18:18:10.157Z,38.80
2022-09-20T18:20:47.421Z,37.67
2022-09-20T18:23:16.591Z,35.33
2022-09-20T18:26:03.535Z,37.55
2022-09-20T18:28:35.783Z,33.60
2022-09-20T18:31:09.019Z,36.67
2022-09-20T18:33:37.488Z,46.10
2022-09-20T18:36:06.495Z,48.15
2022-09-20T18:38:37.992Z,52.28
2022-09-20T18:41:07.694Z,44.15
2022-09-20T18:43:36.265Z,45.50
2022-09-20T18:46:04.722Z,40.53
2022-09-20T18:48:39.455Z,34.22
2022-09-20T18:51:11.570Z,37.65
2022-09-20T18:53:43.657Z,46.83
2022-09-20T18:56:23.259Z,50.30
2022-09-20T18:58:54.482Z,50.47
2022-09-20T19:01:26.127Z,43.70
2022-09-20T19:04:00.135Z,43.72
2022-09-20T19:06:54.396Z,51.75
2022-09-20T19:09:35.561Z,41.60
2022-09-20T19:12:15.748Z,39.58
2022-09-20T19:15:10.492Z,40.50
2022-09-20T19:18:08.334Z,27.48
2022-09-20T19:20:49.232Z,23.50
2022-09-20T19:23:37.360Z,25.02
2022-09-20T19:26:25.868Z,25.45
2022-09-20T19:28:57.969Z,16.85
2022-09-20T19:31:33.654Z,17.70
2022-09-20T19:34:30.026Z,18.00
2022-09-20T19:37:26.340Z,19.60
2022-09-20T19:40:09.687Z,28.33
2022-09-20T19:43:03.155Z,35.15
2022-09-20T19:45:57.735Z,48.67
2022-09-20T19:48:48.680Z,38.00
2022-09-20T19:51:19.445Z,38.15
2022-09-20T19:53:55.660Z,37.03
2022-09-20T19:56:28.413Z,51.88
2022-09-20T20:01:44.234Z,35.38
2022-09-20T20:04:16.551Z,29.20
2022-09-20T20:07:03.977Z,24.35
2022-09-20T20:09:43.932Z,19.10
2022-09-20T20:12:23.726Z,14.23
2022-09-20T20:15:22.359Z,17.20
2022-09-20T20:17:56.328Z,15.57
2022-09-20T20:20:37.264Z,18.23
2022-09-20T20:23:24.100Z,20.10
2022-09-20T20:26:16.732Z,17.60
2022-09-20T20:28:45.623Z,20.85
2022-09-20T20:31:15.247Z,19.70
2022-09-20T20:33:49.082Z,20.08
2022-09-20T20:36:17.973Z,21.30
2022-09-20T20:38:55.459Z,22.58
2022-09-20T20:41:27.660Z,19.23
2022-09-20T20:43:57.411Z,19.73
2022-09-20T20:46:36.155Z,22.50
2022-09-20T20:49:05.454Z,19.63
2022-09-20T20:51:34.718Z,18.52
2022-09-20T20:54:05.458Z,22.98
2022-09-20T20:56:33.607Z,22.00
2022-09-20T20:59:04.652Z,16.38
2022-09-20T21:01:36.462Z,25.67
2022-09-20T21:04:06.837Z,25.80
2022-09-20T21:06:37.302Z,23.73
2022-09-20T21:09:16.898Z,19.13
2022-09-20T21:11:49.682Z,16.88
2022-09-20T21:14:19.305Z,15.38
2022-09-20T21:16:47.679Z,18.98
2022-09-20T21:21:48.383Z,23.73
2022-09-20T21:24:18.859Z,20.17
2022-09-20T21:26:49.767Z,30.33
2022-09-20T21:29:23.614Z,21.92
2022-09-20T21:31:57.470Z,24.65
2022-09-20T21:34:26.634Z,23.05
2022-09-20T21:36:57.696Z,19.02
2022-09-20T21:39:26.185Z,22.23
2022-09-20T21:42:00.317Z,26.23
2022-09-20T21:44:29.023Z,41.40
2022-09-20T21:46:56.946Z,59.20
2022-09-20T21:49:30.390Z,53.17
2022-09-20T21:52:01.684Z,46.97
2022-09-20T21:54:31.451Z,51.28
2022-09-20T21:56:59.986Z,32.65
2022-09-20T21:59:30.691Z,22.27
2022-09-20T22:02:00.030Z,15.20
2022-09-20T22:04:31.892Z,17.83
2022-09-20T22:07:04.871Z,14.73
2022-09-20T22:09:33.547Z,6.90
2022-09-20T22:12:07.341Z,13.85
2022-09-20T22:14:38.370Z,12.35
2022-09-20T22:17:07.382Z,12.75
2022-09-20T22:19:35.767Z,14.13
2022-09-20T22:22:04.960Z,14.15
2022-09-20T22:24:38.345Z,8.70
2022-09-20T22:27:08.279Z,12.25
2022-09-20T22:29:36.681Z,13.05
2022-09-20T22:32:05.125Z,12.30
2022-09-20T22:34:33.215Z,12.10
2022-09-20T22:37:01.440Z,12.50
2022-09-20T22:39:29.374Z,9.60
2022-09-20T22:41:57.773Z,10.07
2022-09-20T22:44:26.587Z,12.05
2022-09-20T22:46:57.770Z,18.00
2022-09-20T22:49:31.056Z,15.98
2022-09-20T22:51:59.793Z,11.98
2022-09-20T22:54:29.747Z,13.23
2022-09-20T22:56:58.354Z,10.50
2022-09-20T22:59:26.305Z,10.05
2022-09-20T23:01:57.940Z,13.00
2022-09-20T23:04:27.212Z,11.95
2022-09-20T23:06:55.398Z,11.20
2022-09-20T23:09:30.521Z,10.73
2022-09-20T23:12:03.134Z,10.50
2022-09-20T23:14:31.684Z,12.13
2022-09-20T23:17:02.611Z,9.80
2022-09-20T23:19:30.775Z,9.02
2022-09-20T23:21:58.994Z,9.32
2022-09-20T23:24:30.535Z,12.50
2022-09-20T23:26:58.802Z,10.25
2022-09-20T23:29:30.083Z,9.32
2022-09-20T23:31:59.372Z,7.18
2022-09-20T23:34:27.903Z,8.90
2022-09-20T23:37:05.159Z,7.65
2022-09-20T23:39:36.108Z,8.10
2022-09-20T23:42:10.716Z,8.30
2022-09-20T23:44:39.872Z,10.77
2022-09-20T23:47:08.839Z,10.25
2022-09-20T23:49:38.874Z,12.23
2022-09-20T23:52:07.200Z,8.45
2022-09-20T23:54:35.952Z,7.05
2022-09-20T23:57:06.367Z,7.95
2022-09-20T23:59:38.773Z,7.10
